Create Custom Reports and Graphics: Custom Report

Bell Hill West (BHR)

Current Conditions

10/18/19 4:45 PM (-07:00)
Updated Every 15 Minutes
Temp 67.0 °F   3.9
RH 41 %   1
Dew Pt 42.5 °F   3.9
Wet Bulb 53.4 °F   3.1
Wind Dir WSW | 240 °
Wind Spd 6.7 mph   0.5
Wind Gust 11.1 mph   0.0
Solar Rad 316 W/m2   20
Daily Min Temp 39.8 °F   9.2
Daily Max Temp 69.4 °F   4.4
Latest Rain 0.00 In
Daily Rain 0.00 In

Bell Hill West

Last 24 Hours

Hourly Data | America/Los_Angeles
as of 10/18/19 4:53 PM PDT
Date & Time Temp (°F) RH (%) Dew Pt (°F) Wet Bulb (°F) Leaf Wet (mins) Wind Dir (°) Wind Spd (mph) Wind Gust (mph) Solar Rad (W/m2) Latest Rain (In) Daily Rain (In) Daily Min Temp (°F) Daily Max Temp (°F)
10/18/19 - 1600 68.5 35 41.4 52.8 0.1 W | 262 4.3 11.5 510 0.00 0.00 39.8 69.4
10/18/19 - 1500 67.4 39 40.6 53.3 0.1 WSW | 253 4.8 11.8 638 0.00 0.00 39.8 68.1
10/18/19 - 1400 65.7 43 41.2 53.0 0.1 W | 279 4.2 11.3 708 0.00 0.00 39.8 67.0
10/18/19 - 1300 64.0 51 44.8 53.8 0.0 WSW | 248 4.9 12.3 723 0.00 0.00 39.8 64.9
10/18/19 - 1200 61.0 60 46.4 53.7 0.0 SSW | 202 3.2 8.8 538 0.00 0.00 39.8 63.8
10/18/19 - 1100 58.0 70 47.5 53.1 0.0 NNE | 18 0.6 5.3 300 0.00 0.00 39.8 59.3
10/18/19 - 1000 52.2 79 48.4 49.4 0.0 S | 179 0.7 3.3 198 0.00 0.00 39.8 57.0
10/18/19 - 0900 47.6 84 43.7 45.8 0.0 S | 191 0.5 3.8 75 0.00 0.00 39.8 48.8
10/18/19 - 0800 45.4 87 42.6 43.9 0.0 S | 188 2.0 4.4 12 0.00 0.00 39.8 46.7
10/18/19 - 0700 43.6 88 40.0 42.2 0.0 S | 189 1.7 4.1 0 0.00 0.00 39.8 44.1
10/18/19 - 0600 41.7 89 39.4 40.5 0.0 S | 181 2.3 4.9 0 0.00 0.00 39.8 42.8
10/18/19 - 0500 41.0 89 38.5 39.8 0.0 S | 186 1.9 4.1 0 0.00 0.00 39.8 41.8
10/18/19 - 0400 40.4 89 37.0 39.3 0.0 S | 190 2.9 4.1 0 0.00 0.00 39.8 41.8
10/18/19 - 0300 40.4 89 38.0 39.3 0.0 S | 186 3.0 4.9 0 0.00 0.00 39.9 41.8
10/18/19 - 0200 40.9 88 37.4 39.6 0.0 S | 185 2.2 4.8 0 0.00 0.00 40.4 41.8
10/18/19 - 0100 42.3 87 38.5 40.8 0.0 S | 187 2.8 4.9 0 0.00 0.00 41.3 65.0
10/18/19 - 0000 43.1 86 39.0 41.6 0.0 S | 187 2.5 4.6 0 0.00 0.00 42.3 65.0
10/17/19 - 2300 44.3 84 39.2 42.4 0.0 S | 179 1.5 4.3 0 0.00 0.00 42.9 65.0
10/17/19 - 2200 47.2 79 40.2 44.5 0.0 SE | 136 0.9 3.9 0 0.00 0.00 45.3 65.0
10/17/19 - 2100 51.2 71 41.0 47.0 0.0 SSE | 155 0.8 4.6 0 0.00 0.00 48.0 65.0
10/17/19 - 2000 55.2 64 43.2 49.3 0.0 WNW | 293 3.4 10.1 0 0.00 0.00 49.0 65.0
10/17/19 - 1900 57.4 57 43.0 49.7 0.0 WNW | 288 4.7 10.1 11 0.00 0.00 49.0 65.0
10/17/19 - 1800 61.0 46 41.5 50.3 0.0 WNW | 289 5.8 10.8 149 0.00 0.00 49.0 65.0
10/17/19 - 1700 62.6 42 39.2 50.4 0.0 W | 275 7.0 13.0 307 0.00 0.00 49.0 65.0
10/17/19 - 1600 63.9 40 40.1 51.0 0.0 W | 272 7.2 12.6 523 0.00 0.00 49.0 65.0
Max 68.5 89 48.4 53.8 0.1 - 7.2 13.0 723 0.00 0.00 49.0 69.4
Avg 52.2 69 41.3 46.7 0.0 - 3.0 7.1 188 0.00 - - -
Min 40.4 35 37.0 39.3 0.0 - 0.5 3.3 0 0.00 0.00 39.8 41.8
Total - - - - - - - - - 0.00 - - -

Bell Hill West - Daily Summary

Last 30 Days

Daily Data | America/Los_Angeles
as of 10/18/19 4:53 PM PDT
Date Daily Max Temp (°F) Max Temp Time Daily Min Temp (°F) Min Temp Time Daily Rain (In) Seasonal Rainfall (In) Wind Spd (mph) Daily Max Wind (mph) Max Wind Time Max Wind Dir (°) Dew Pt (°F) Max RH (%) Min RH (%) Daily Solar Rad (Cal/cm2) Daily ETo (in) GDDs (DL) Chill Hrs <=45 (hrs) Hrs <= 32F (hrs) Hrs <= 28F (hrs) Hrs 70-85F (hrs) Hrs > 95F (hrs) Powdery Mildew Stress (pts) Leaf Wet (hrs) Bat Volt Min Day (V)
10/17/19 65.0 1506 41.3 0052 0.00 0.11 4.3 13.8 1339 WSW | 240 40.3 88 38 180 0.05 3.05 2.8 0.0 0.0 0.00 0.00 0 1.0 12.32
10/16/19 76.2 1416 35.8 0617 0.00 0.10 3.9 12.5 1618 WSW | 248 36.1 85 12 372 0.12 9.02 7.7 0.0 0.0 3.32 0.00 20 0.9 12.20
10/15/19 79.5 1557 36.2 0733 0.00 0.10 3.3 12.3 1622 SSW | 212 32.0 83 13 438 0.14 8.84 9.4 0.0 0.0 5.86 0.00 30 0.8 12.19
10/14/19 79.6 1534 33.8 0702 0.00 0.10 3.2 9.8 1549 SSW | 196 30.6 76 13 439 0.14 9.38 8.6 0.0 0.0 5.92 0.00 40 0.8 12.20
10/13/19 76.5 1622 33.0 0732 0.00 0.10 3.1 10.8 1334 NNE | 31 25.4 77 11 436 0.13 7.96 10.6 0.0 0.0 5.79 0.00 50 0.8 12.20
10/12/19 76.8 1521 32.9 0723 0.00 0.10 3.0 8.6 1709 SW | 220 25.3 69 12 432 0.13 8.64 9.5 0.0 0.0 5.59 0.00 60 0.8 12.20
10/11/19 78.3 1610 32.0 0714 0.00 0.10 3.2 10.5 1243 N | 2 19.8 53 10 462 0.14 8.74 10.3 0.0 0.0 5.88 0.00 70 0.8 12.10
10/10/19 76.9 1408 31.7 0717 0.00 0.10 3.6 12.8 1541 ENE | 69 12.1 52 5 477 0.15 8.46 11.4 0.1 0.0 6.44 0.00 80 0.8 12.21
10/9/19 75.0 1608 33.9 0731 0.00 0.10 2.7 11.0 1335 NE | 47 25.2 85 6 476 0.13 6.78 10.6 0.0 0.0 4.03 0.00 60 0.8 12.22
10/8/19 85.5 1459 41.6 0637 0.00 0.10 3.4 14.0 1541 SW | 235 38.1 76 13 401 0.15 13.63 3.0 0.0 0.0 7.96 0.00 70 1.0 12.21
10/7/19 87.2 1726 41.0 0645 0.00 0.10 2.9 9.5 1506 N | 7 34.8 77 13 462 0.15 14.31 4.7 0.0 0.0 4.91 0.00 50 0.8 12.20
10/6/19 85.0 1636 40.2 0715 0.00 0.10 2.6 11.5 1434 NE | 35 32.6 70 11 475 0.14 12.20 6.2 0.0 0.0 7.59 0.00 60 0.8 12.14
10/5/19 79.6 1650 37.1 0728 0.00 0.10 2.7 9.8 1719 NE | 36 33.1 91 11 478 0.14 9.59 7.4 0.0 0.0 6.51 0.00 40 0.8 12.22
10/4/19 71.4 1522 34.0 0659 0.00 0.10 2.6 10.3 1616 N | 7 33.2 90 16 490 0.14 6.79 9.4 0.0 0.0 0.98 0.00 20 0.8 12.21
10/3/19 71.4 1402 38.6 0701 0.00 0.10 3.5 15.0 1346 WSW | 257 34.8 80 29 488 0.15 7.24 8.6 0.0 0.0 2.40 0.00 30 0.8 12.22
10/2/19 74.8 1629 34.6 0615 0.00 0.10 3.0 12.1 1346 WSW | 241 32.4 90 15 496 0.15 8.44 9.4 0.0 0.0 5.64 0.00 40 0.8 12.22
10/1/19 69.2 1652 32.1 0642 0.00 0.10 2.7 13.6 1534 ENE | 59 32.7 97 19 504 0.14 5.84 11.0 0.0 0.0 0.00 0.00 50 0.8 12.23
9/30/19 60.9 1641 34.3 0709 0.00 0.10 2.7 18.3 1251 N | 2 36.0 98 30 403 0.10 3.18 11.6 0.0 0.0 0.00 0.00 60 1.1 12.14
9/29/19 63.2 1317 35.2 0547 0.00 0.10 2.8 17.2 1647 WSW | 246 38.2 91 37 392 0.10 3.20 9.2 0.0 0.0 0.00 0.00 70 1.2 12.22
9/28/19 65.8 1404 41.9 0058 0.00 0.10 5.5 22.4 1211 WSW | 240 38.3 81 26 517 0.16 5.46 1.0 0.0 0.0 0.00 0.00 80 0.8 12.20
9/27/19 77.4 1507 52.0 0659 0.00 0.10 3.9 13.8 1229 SW | 227 49.7 94 21 510 0.16 13.41 0.0 0.0 0.0 6.91 0.00 90 0.8 12.08
9/26/19 87.1 1057 56.4 0725 0.00 0.10 5.2 20.2 1435 SSE | 167 50.9 88 27 508 0.18 17.60 0.0 0.0 0.0 5.68 0.00 70 0.8 12.05
9/25/19 97.2 1559 56.0 0652 0.00 0.10 2.1 13.6 1312 N | 0 46.4 79 13 516 0.17 25.41 0.0 0.0 0.0 2.34 3.32 80 0.8 12.05
9/24/19 97.1 1717 48.5 0637 0.00 0.10 1.1 9.3 1302 N | 1 43.5 75 14 518 0.15 21.77 0.0 0.0 0.0 2.39 2.11 90 0.8 12.05
9/23/19 85.6 1609 46.8 0657 0.00 0.10 1.1 13.2 1515 NNE | 31 40.8 95 8 534 0.16 14.67 0.0 0.0 0.0 8.29 0.00 100 0.9 12.04
9/22/19 83.2 1546 48.1 0615 0.00 0.10 2.8 14.8 1349 W | 271 46.9 85 23 464 0.16 14.53 0.0 0.0 0.0 7.92 0.00 90 1.2 12.06
9/21/19 85.5 1545 46.4 0713 0.00 0.10 2.0 13.0 1824 WSW | 256 41.9 89 14 543 0.17 16.04 0.0 0.0 0.0 10.06 0.00 70 0.9 12.06
9/20/19 81.1 1656 44.4 0638 0.00 0.10 2.3 10.3 1332 N | 1 44.4 96 22 540 0.16 12.89 1.0 0.0 0.0 8.53 0.00 50 0.9 12.04
9/19/19 74.7 1756 42.5 0637 0.00 0.10 2.1 13.6 1249 N | 5 44.9 100 28 547 0.15 9.54 3.9 0.0 0.0 5.48 0.00 30 0.9 12.07
9/18/19 70.3 1313 48.6 0053 0.03 0.10 3.7 15.0 1351 WSW | 256 51.0 100 38 445 0.13 9.60 0.0 0.0 0.0 0.04 0.00 40 1.3 12.10
Max 97.2 - 56.4 - 0.03 - 5.5 22.4 - - 51.0 100 38 547 0.18 25.41 11.6 0.1 0.0 10.06 3.32 100 1.3 12.32
Avg - - - - - - 3.0 - - - 36.4 - - - - 10.54 5.6 0.0 0.0 4.55 0.18 - - -
Min 60.9 - 31.7 - 0.00 - 1.1 8.6 - - 12.1 52 5 180 0.05 3.05 0.0 0.0 0.0 0.00 0.00 0 0.8 12.04
Total - - - - - - - - - - - - - - - 316.21 167.6 0.1 0.0 136.46 5.43 - - -

Bell Hill West Climate Summary

Current Yeaer

Current Year | Showing 1/1/19 - 10/17/19
as of 10/18/19 4:53 PM PDT
Temperature (°F) Precip (in) Days
Month Days Avg Max Avg Min Max Max Min Min Total Daily Min Temp < 28 Daily Min Temp < 32 Daily Max Temp > 90 Daily Max Temp > 100 Daily Rain > 0.01 Daily Rain > 0.1
Jan 2019 31 56.8 36.2 71.5 24.5 10.09 3 8 0 0 12 11
Feb 2019 28 49.5 33.4 56.5 21.5 17.41 10 14 0 0 17 14
Mar 2019 31 58.8 36.4 74.6 26.8 4.4 1 6 0 0 12 10
Apr 2019 30 70.5 44 88.6 33.2 0.38 0 0 0 0 4 1
May 2019 31 72.1 44.7 85.2 36.4 2.59 0 0 0 0 6 5
Jun 2019 30 87.1 51.7 98.2 41.6 0 0 0 10 0 0 0
Jul 2019 31 89.5 54 100 47.1 0 0 0 14 0 0 0
Aug 2019 31 91.4 55.5 102 49.6 0 0 0 21 1 0 0
Sep 2019 30 82.5 47.9 97.2 34.3 0.1 0 0 9 0 2 0
Oct 2019 17 76.9 35.9 87.2 31.7 0 0 1 0 0 0 0
Total 290 - - - - 34.97 14 29 54 1 53 41
Average 29 73.5 44 - - 3.5 1.4 2.9 5.4 0.1 5.3 4.1
Maximum 31 91.4 55.5 102 - 17.41 10 14 21 1 17 14
Minimum 17 49.5 33.4 - 21.5 0 0 0 0 0 0 0

Bell Hill West Climate Summary

Last Year

Last Year | Showing 1/1/18 - 12/31/18
as of 10/18/19 4:53 PM PDT
Temperature (°F) Precip (in) Days
Month Days Avg Max Avg Min Max Max Min Min Total Daily Min Temp < 28 Daily Min Temp < 32 Daily Max Temp > 90 Daily Max Temp > 100 Daily Rain > 0.01 Daily Rain > 0.1
Jan 2018 31 55.8 33.2 68.2 -40 6.62 3 10 0 0 15 9
Feb 2018 28 62 28.9 78.8 19.4 0.75 15 17 0 0 3 2
Mar 2018 31 59.9 34.1 82.6 23.8 6.24 5 11 0 0 16 13
Apr 2018 30 67.3 37.4 82.3 -40 3.01 1 2 0 0 7 7
May 2018 31 75.9 42.6 92.8 -40 0.12 1 1 1 0 2 0
Jun 2018 30 85.9 49.2 99.3 38.4 0 0 0 8 0 0 0
Jul 2018 31 93.9 56.5 103 47.8 0 0 0 24 4 0 0
Aug 2018 31 90.1 49.1 98 -40 0 1 1 16 0 0 0
Sep 2018 29 86.4 46.3 97.2 40.1 0.08 0 0 14 0 1 0
Oct 2018 31 77 42.1 86.4 32.4 1.04 0 0 0 0 4 2
Nov 2018 30 66 33.9 81.6 23.6 4.82 9 14 0 0 7 7
Dec 2018 31 54.8 33.2 62.3 25.4 3.2 2 15 0 0 11 5
Total 364 - - - - 25.88 37 71 63 4 66 45
Average 30.3 72.9 40.5 - - 2.16 3.1 5.9 5.2 0.3 5.5 3.8
Maximum 31 93.9 56.5 103 - 6.62 15 17 24 4 16 13
Minimum 28 54.8 28.9 - -40 0 0 0 0 0 0 0
Calm: 2.1%
Calm: 2.9%